createdAt,value
2024-03-26T00:00:44.890Z,68.96
2024-03-26T00:01:44.811Z,69.07
2024-03-26T00:02:44.786Z,68.96
2024-03-26T00:03:44.782Z,68.96
2024-03-26T00:04:44.779Z,68.96
2024-03-26T00:05:44.763Z,68.96
2024-03-26T00:06:44.793Z,68.96
2024-03-26T00:07:44.742Z,68.96
2024-03-26T00:08:44.777Z,69.07
2024-03-26T00:09:44.718Z,69.17
2024-03-26T00:10:45.410Z,69.17
2024-03-26T00:11:44.734Z,69.17
2024-03-26T00:12:44.695Z,69.17
2024-03-26T00:13:44.670Z,69.17
2024-03-26T00:14:44.693Z,69.27
2024-03-26T00:15:44.645Z,69.27
2024-03-26T00:16:44.690Z,69.38
2024-03-26T00:17:44.646Z,69.38
2024-03-26T00:18:44.610Z,69.27
2024-03-26T00:19:44.609Z,69.27
2024-03-26T00:20:44.635Z,69.38
2024-03-26T00:21:44.632Z,69.48
2024-03-26T00:22:44.620Z,69.38
2024-03-26T00:23:44.600Z,69.27
2024-03-26T00:24:44.623Z,69.38
2024-03-26T00:25:44.591Z,69.38
2024-03-26T00:26:44.574Z,69.38
2024-03-26T00:27:44.593Z,69.38
2024-03-26T00:28:44.524Z,69.38
2024-03-26T00:29:44.511Z,69.48
2024-03-26T00:30:44.572Z,69.38
2024-03-26T00:31:44.482Z,69.51
2024-03-26T00:32:44.537Z,69.41
2024-03-26T00:33:44.528Z,69.51
2024-03-26T00:34:44.456Z,69.51
2024-03-26T00:35:44.452Z,69.51
2024-03-26T00:36:44.419Z,69.62
2024-03-26T00:37:44.529Z,69.72
2024-03-26T00:38:44.431Z,69.51
2024-03-26T00:39:44.408Z,69.62
2024-03-26T00:40:44.405Z,69.72
2024-03-26T00:41:44.492Z,69.72
2024-03-26T00:42:44.374Z,69.51
2024-03-26T00:43:44.423Z,69.51
2024-03-26T00:44:44.385Z,69.72
2024-03-26T00:45:44.341Z,69.51
2024-03-26T00:46:44.344Z,69.62
2024-03-26T00:47:44.335Z,69.62
2024-03-26T00:48:44.381Z,69.72
2024-03-26T00:49:44.301Z,69.72
2024-03-26T00:50:44.394Z,69.82
2024-03-26T00:51:44.266Z,69.82
2024-03-26T00:52:44.264Z,69.82
2024-03-26T00:53:44.267Z,69.72
2024-03-26T00:54:44.307Z,69.82
2024-03-26T00:55:44.234Z,69.93
2024-03-26T00:56:44.258Z,69.93
2024-03-26T00:57:44.222Z,69.93
2024-03-26T00:58:44.177Z,69.93
2024-03-26T00:59:44.389Z,69.93
2024-03-26T01:00:44.183Z,69.72
2024-03-26T01:01:44.176Z,69.72
2024-03-26T01:02:44.179Z,69.82
2024-03-26T01:03:44.138Z,69.82
2024-03-26T01:04:44.116Z,69.72
2024-03-26T01:05:44.209Z,69.82
2024-03-26T01:06:44.108Z,70.03
2024-03-26T01:07:44.111Z,69.93
2024-03-26T01:08:44.115Z,69.93
2024-03-26T01:09:44.156Z,70.03
2024-03-26T01:10:47.897Z,70.06
2024-03-26T01:11:44.081Z,70.03
2024-03-26T01:12:44.032Z,70.17
2024-03-26T01:13:44.042Z,70.03
2024-03-26T01:14:44.047Z,70.03
2024-03-26T01:15:44.099Z,70.03
2024-03-26T01:16:44.031Z,70.06
2024-03-26T01:17:44.040Z,70.17
2024-03-26T01:18:43.965Z,70.17
2024-03-26T01:19:44.109Z,70.27
2024-03-26T01:20:43.992Z,70.27
2024-03-26T01:21:43.962Z,70.27
2024-03-26T01:22:43.946Z,70.27
2024-03-26T01:23:43.972Z,70.37
2024-03-26T01:24:43.920Z,70.37
2024-03-26T01:25:43.957Z,70.47
2024-03-26T01:26:44.019Z,70.47
2024-03-26T01:27:43.892Z,70.37
2024-03-26T01:28:43.878Z,70.47
2024-03-26T01:29:43.884Z,70.68
2024-03-26T01:30:43.882Z,70.78
2024-03-26T01:31:43.924Z,70.78
2024-03-26T01:32:43.949Z,70.78
2024-03-26T01:33:43.821Z,70.89
2024-03-26T01:34:43.860Z,70.89
2024-03-26T01:35:43.809Z,70.89
2024-03-26T01:36:43.783Z,70.89
2024-03-26T01:37:43.815Z,70.99
2024-03-26T01:38:43.871Z,71.09
2024-03-26T01:39:43.804Z,70.99
2024-03-26T01:40:43.750Z,70.99
2024-03-26T01:41:43.774Z,71.09
2024-03-26T01:42:43.748Z,71.30
2024-03-26T01:43:43.752Z,71.33
2024-03-26T01:44:43.718Z,71.33
2024-03-26T01:45:43.696Z,71.44
2024-03-26T01:46:43.689Z,71.44
2024-03-26T01:47:43.803Z,71.54
2024-03-26T01:48:43.672Z,71.54
2024-03-26T01:49:43.657Z,71.54
2024-03-26T01:50:43.668Z,71.64
2024-03-26T01:51:43.636Z,71.64
2024-03-26T01:52:43.703Z,71.64
2024-03-26T01:53:43.616Z,71.85
2024-03-26T01:54:43.576Z,71.85
2024-03-26T01:55:43.601Z,71.75
2024-03-26T01:56:43.637Z,71.85
2024-03-26T01:57:43.670Z,71.85
2024-03-26T01:58:43.689Z,71.85
2024-03-26T01:59:43.587Z,71.85
2024-03-26T02:00:43.546Z,71.95
2024-03-26T02:01:43.526Z,71.95
2024-03-26T02:02:43.635Z,72.06
2024-03-26T02:03:43.575Z,72.06
2024-03-26T02:04:43.492Z,72.06
2024-03-26T02:05:43.508Z,72.16
2024-03-26T02:06:43.472Z,72.16
2024-03-26T02:07:43.495Z,72.16
2024-03-26T02:08:43.558Z,72.16
2024-03-26T02:09:43.512Z,72.26
2024-03-26T02:10:43.451Z,72.40
2024-03-26T02:11:43.432Z,72.50
2024-03-26T02:12:43.406Z,72.50
2024-03-26T02:13:43.422Z,72.50
2024-03-26T02:14:43.487Z,72.40
2024-03-26T02:15:43.389Z,72.40
2024-03-26T02:16:43.371Z,72.50
2024-03-26T02:17:43.402Z,72.40
2024-03-26T02:18:43.470Z,72.30
2024-03-26T02:19:43.436Z,72.50
2024-03-26T02:20:45.579Z,72.50
2024-03-26T02:21:43.316Z,72.61
2024-03-26T02:22:43.314Z,72.50
2024-03-26T02:23:43.299Z,72.50
2024-03-26T02:24:43.304Z,72.50
2024-03-26T02:25:43.271Z,72.50
2024-03-26T02:26:43.254Z,72.50
2024-03-26T02:27:43.274Z,72.61
2024-03-26T02:28:43.237Z,72.50
2024-03-26T02:29:43.273Z,72.50
2024-03-26T02:30:43.246Z,72.61
2024-03-26T02:31:43.233Z,72.61
2024-03-26T02:32:43.193Z,72.50
2024-03-26T02:33:43.201Z,72.61
2024-03-26T02:34:43.168Z,72.81
2024-03-26T02:35:43.220Z,72.91
2024-03-26T02:36:43.227Z,72.91
2024-03-26T02:37:43.179Z,72.81
2024-03-26T02:38:43.148Z,72.81
2024-03-26T02:39:43.124Z,72.81
2024-03-26T02:40:43.097Z,72.71
2024-03-26T02:41:43.182Z,72.71
2024-03-26T02:42:43.159Z,72.71
2024-03-26T02:43:43.163Z,72.71
2024-03-26T02:44:43.083Z,72.81
2024-03-26T02:45:43.084Z,72.81
2024-03-26T02:46:43.041Z,72.81
2024-03-26T02:47:43.038Z,72.81
2024-03-26T02:48:43.087Z,72.81
2024-03-26T02:49:43.104Z,72.81
2024-03-26T02:50:43.010Z,72.91
2024-03-26T02:51:42.997Z,72.81
2024-03-26T02:52:43.000Z,72.81
2024-03-26T02:53:42.978Z,72.91
2024-03-26T02:54:43.015Z,72.91
2024-03-26T02:55:42.940Z,73.02
2024-03-26T02:56:42.960Z,73.12
2024-03-26T02:57:42.940Z,73.12
2024-03-26T02:58:42.911Z,73.12
2024-03-26T02:59:43.012Z,73.12
2024-03-26T03:00:42.902Z,73.22
2024-03-26T03:01:42.970Z,73.12
2024-03-26T03:02:45.158Z,73.12
2024-03-26T03:03:42.875Z,73.12
2024-03-26T03:04:42.859Z,73.12
2024-03-26T03:05:42.918Z,73.12
2024-03-26T03:06:42.929Z,73.02
2024-03-26T03:07:42.831Z,73.12
2024-03-26T03:08:42.837Z,73.12
2024-03-26T03:09:42.828Z,73.12
2024-03-26T03:10:42.836Z,73.12
2024-03-26T03:11:42.772Z,73.12
2024-03-26T03:12:42.891Z,73.02
2024-03-26T03:13:42.763Z,73.02
2024-03-26T03:14:42.766Z,73.02
2024-03-26T03:15:42.757Z,72.91
2024-03-26T03:16:42.839Z,73.02
2024-03-26T03:17:42.760Z,73.12
2024-03-26T03:18:42.693Z,73.02
2024-03-26T03:19:42.717Z,73.02
2024-03-26T03:20:42.692Z,73.12
2024-03-26T03:21:42.779Z,73.02
2024-03-26T03:22:42.676Z,73.12
2024-03-26T03:23:42.812Z,73.12
2024-03-26T03:24:42.641Z,73.22
2024-03-26T03:25:42.652Z,73.12
2024-03-26T03:26:42.627Z,73.22
2024-03-26T03:27:42.627Z,73.12
2024-03-26T03:28:42.623Z,73.12
2024-03-26T03:29:42.586Z,73.12
2024-03-26T03:30:42.571Z,73.12
2024-03-26T03:31:42.568Z,73.02
2024-03-26T03:32:46.593Z,73.12
2024-03-26T03:33:42.557Z,73.12
2024-03-26T03:34:42.537Z,73.22
2024-03-26T03:35:42.551Z,73.22
2024-03-26T03:36:42.527Z,73.22
2024-03-26T03:37:42.630Z,73.12
2024-03-26T03:38:46.235Z,73.12
2024-03-26T03:39:42.563Z,73.02
2024-03-26T03:40:42.456Z,73.02
2024-03-26T03:41:42.469Z,73.02
2024-03-26T03:42:42.457Z,73.22
2024-03-26T03:43:42.509Z,73.33
2024-03-26T03:44:42.416Z,73.33
2024-03-26T03:45:42.422Z,73.22
2024-03-26T03:46:42.428Z,73.43
2024-03-26T03:47:42.401Z,73.43
2024-03-26T03:48:42.440Z,73.33
2024-03-26T03:49:42.409Z,73.22
2024-03-26T03:50:42.353Z,73.33
2024-03-26T03:51:42.377Z,73.43
2024-03-26T03:52:42.337Z,73.33
2024-03-26T03:53:42.385Z,73.33
2024-03-26T03:54:42.375Z,73.22
2024-03-26T03:55:42.296Z,73.22
2024-03-26T03:56:42.307Z,73.22
2024-03-26T03:57:42.306Z,73.33
2024-03-26T03:58:42.333Z,73.43
2024-03-26T03:59:42.353Z,73.33
2024-03-26T04:00:42.290Z,73.33
2024-03-26T04:01:42.274Z,73.33
2024-03-26T04:02:42.233Z,73.22
2024-03-26T04:03:42.333Z,73.22
2024-03-26T04:04:42.234Z,73.22
2024-03-26T04:05:42.244Z,73.02
2024-03-26T04:06:42.205Z,73.12
2024-03-26T04:07:42.183Z,73.12
2024-03-26T04:08:42.158Z,73.12
2024-03-26T04:09:42.225Z,73.22
2024-03-26T04:10:42.162Z,73.33
2024-03-26T04:11:46.150Z,73.22
2024-03-26T04:12:42.130Z,73.12
2024-03-26T04:13:42.130Z,73.12
2024-03-26T04:14:42.109Z,73.12
2024-03-26T04:15:42.163Z,73.22
2024-03-26T04:16:42.147Z,73.12
2024-03-26T04:17:42.076Z,73.02
2024-03-26T04:18:42.083Z,73.02
2024-03-26T04:19:42.066Z,73.12
2024-03-26T04:20:46.071Z,73.12
2024-03-26T04:21:42.233Z,73.22
2024-03-26T04:22:42.023Z,73.22
2024-03-26T04:23:42.015Z,73.22
2024-03-26T04:24:42.121Z,73.33
2024-03-26T04:25:42.014Z,73.33
2024-03-26T04:26:42.059Z,73.33
2024-03-26T04:27:41.988Z,73.33
2024-03-26T04:28:41.978Z,73.43
2024-03-26T04:29:41.974Z,73.43
2024-03-26T04:30:41.929Z,73.33
2024-03-26T04:31:41.996Z,73.33
2024-03-26T04:32:42.067Z,73.33
2024-03-26T04:33:41.917Z,73.43
2024-03-26T04:34:41.908Z,73.43
2024-03-26T04:35:41.890Z,73.43
2024-03-26T04:36:41.934Z,73.43
2024-03-26T04:37:41.885Z,73.43
2024-03-26T04:38:41.860Z,73.54
2024-03-26T04:39:41.896Z,73.64
2024-03-26T04:40:41.812Z,73.64
2024-03-26T04:41:41.831Z,73.54
2024-03-26T04:42:41.897Z,73.54
2024-03-26T04:43:42.534Z,73.64
2024-03-26T04:44:41.790Z,73.74
2024-03-26T04:45:41.781Z,73.64
2024-03-26T04:46:41.811Z,73.64
2024-03-26T04:47:41.767Z,73.64
2024-03-26T04:48:41.828Z,73.95
2024-03-26T04:49:41.740Z,74.05
2024-03-26T04:50:41.729Z,73.95
2024-03-26T04:51:41.700Z,73.64
2024-03-26T04:52:41.755Z,73.54
2024-03-26T04:53:41.707Z,73.64
2024-03-26T04:54:41.680Z,73.74
2024-03-26T04:55:41.651Z,73.85
2024-03-26T04:56:41.690Z,73.85
2024-03-26T04:57:41.698Z,73.64
2024-03-26T04:58:41.646Z,73.64
2024-03-26T04:59:41.722Z,73.64
2024-03-26T05:00:41.621Z,73.74
2024-03-26T05:01:41.603Z,73.74
2024-03-26T05:02:41.722Z,73.74
2024-03-26T05:03:41.588Z,73.85
2024-03-26T05:04:41.580Z,73.74
2024-03-26T05:05:41.572Z,74.15
2024-03-26T05:06:41.582Z,74.26
2024-03-26T05:07:41.544Z,74.05
2024-03-26T05:08:41.586Z,73.95
2024-03-26T05:09:41.535Z,74.05
2024-03-26T05:10:41.534Z,73.95
2024-03-26T05:11:41.496Z,73.95
2024-03-26T05:12:41.492Z,73.95
2024-03-26T05:13:41.487Z,73.85
2024-03-26T05:14:42.141Z,73.85
2024-03-26T05:15:41.467Z,73.74
2024-03-26T05:16:41.475Z,73.74
2024-03-26T05:17:41.428Z,73.74
2024-03-26T05:18:41.432Z,73.95
2024-03-26T05:19:41.545Z,74.05
2024-03-26T05:20:41.408Z,74.15
2024-03-26T05:21:41.397Z,74.05
2024-03-26T05:22:41.383Z,74.26
2024-03-26T05:23:41.409Z,74.57
2024-03-26T05:24:41.365Z,74.26
2024-03-26T05:25:41.382Z,74.05
2024-03-26T05:26:41.372Z,74.05
2024-03-26T05:27:41.329Z,74.05
2024-03-26T05:28:41.330Z,73.95
2024-03-26T05:29:41.295Z,73.95
2024-03-26T05:30:41.955Z,73.85
2024-03-26T05:31:41.340Z,74.05
2024-03-26T05:32:41.267Z,74.15
2024-03-26T05:33:41.277Z,73.85
2024-03-26T05:34:41.268Z,74.36
2024-03-26T05:35:41.260Z,73.85
2024-03-26T05:36:41.226Z,73.54
2024-03-26T05:37:41.273Z,73.54
2024-03-26T05:38:41.345Z,73.64
2024-03-26T05:39:41.281Z,73.54
2024-03-26T05:40:41.227Z,73.64
2024-03-26T05:41:41.366Z,73.74
2024-03-26T05:42:41.208Z,73.64
2024-03-26T05:43:41.470Z,73.64
2024-03-26T05:44:41.279Z,73.64
2024-03-26T05:45:41.269Z,73.64
2024-03-26T05:46:41.362Z,73.64
2024-03-26T05:47:41.273Z,73.64
2024-03-26T05:48:41.266Z,73.74
2024-03-26T05:49:41.226Z,73.64
2024-03-26T05:50:41.195Z,73.64
2024-03-26T05:51:41.143Z,73.74
2024-03-26T05:52:41.135Z,73.85
2024-03-26T05:53:41.068Z,73.74
2024-03-26T05:54:41.028Z,73.74
2024-03-26T05:55:41.134Z,73.95
2024-03-26T05:56:41.061Z,73.85
2024-03-26T05:57:41.023Z,73.85
2024-03-26T05:58:41.121Z,73.74
2024-03-26T05:59:40.974Z,73.85
2024-03-26T06:00:41.018Z,73.85
2024-03-26T06:01:40.971Z,73.85
2024-03-26T06:02:41.093Z,73.74
2024-03-26T06:03:40.946Z,73.74
2024-03-26T06:04:40.947Z,73.64
2024-03-26T06:05:40.957Z,73.54
2024-03-26T06:06:40.901Z,73.64
2024-03-26T06:07:40.911Z,73.74
2024-03-26T06:08:40.905Z,73.85
2024-03-26T06:09:40.871Z,73.85
2024-03-26T06:10:44.954Z,73.85
2024-03-26T06:11:40.881Z,73.74
2024-03-26T06:12:40.931Z,74.05
2024-03-26T06:13:40.832Z,74.05
2024-03-26T06:14:40.853Z,73.95
2024-03-26T06:15:40.831Z,73.95
2024-03-26T06:16:40.819Z,74.05
2024-03-26T06:17:41.076Z,73.95
2024-03-26T06:18:40.784Z,73.85
2024-03-26T06:19:40.790Z,73.74
2024-03-26T06:20:40.819Z,73.74
2024-03-26T06:21:40.842Z,73.74
2024-03-26T06:22:40.834Z,73.74
2024-03-26T06:23:40.846Z,73.64
2024-03-26T06:24:40.826Z,73.64
2024-03-26T06:25:40.738Z,73.74
2024-03-26T06:26:40.718Z,73.85
2024-03-26T06:27:40.682Z,73.85
2024-03-26T06:28:40.686Z,73.85
2024-03-26T06:29:40.896Z,73.85
2024-03-26T06:30:40.676Z,73.85
2024-03-26T06:31:40.648Z,73.85
2024-03-26T06:32:40.750Z,73.85
2024-03-26T06:33:40.632Z,73.85
2024-03-26T06:34:40.646Z,73.74
2024-03-26T06:35:40.613Z,73.85
2024-03-26T06:36:40.603Z,73.81
2024-03-26T06:37:40.744Z,73.74
2024-03-26T06:38:40.584Z,73.81
2024-03-26T06:39:40.566Z,73.71
2024-03-26T06:40:40.547Z,73.71
2024-03-26T06:41:40.624Z,73.71
2024-03-26T06:42:40.530Z,73.71
2024-03-26T06:43:40.612Z,73.71
2024-03-26T06:44:40.534Z,73.81
2024-03-26T06:45:40.502Z,73.71
2024-03-26T06:46:40.499Z,73.71
2024-03-26T06:47:40.558Z,73.60
2024-03-26T06:48:40.478Z,73.60
2024-03-26T06:49:40.465Z,73.60
2024-03-26T06:50:40.457Z,73.60
2024-03-26T06:51:41.797Z,73.50
2024-03-26T06:52:40.501Z,73.50
2024-03-26T06:53:40.419Z,73.26
2024-03-26T06:54:40.457Z,73.26
2024-03-26T06:55:40.405Z,73.36
2024-03-26T06:56:40.412Z,73.36
2024-03-26T06:57:40.381Z,73.47
2024-03-26T06:58:40.373Z,73.36
2024-03-26T06:59:40.412Z,73.16
2024-03-26T07:00:40.406Z,73.16
2024-03-26T07:01:40.338Z,73.05
2024-03-26T07:02:40.309Z,72.95
2024-03-26T07:03:40.311Z,72.95
2024-03-26T07:04:40.380Z,72.95
2024-03-26T07:05:40.301Z,72.95
2024-03-26T07:06:40.351Z,73.05
2024-03-26T07:07:40.279Z,73.05
2024-03-26T07:08:40.932Z,72.85
2024-03-26T07:09:40.247Z,72.85
2024-03-26T07:10:40.254Z,72.85
2024-03-26T07:11:40.246Z,72.92
2024-03-26T07:12:40.287Z,72.81
2024-03-26T07:13:40.208Z,72.92
2024-03-26T07:14:40.196Z,72.61
2024-03-26T07:15:40.228Z,72.71
2024-03-26T07:16:40.243Z,72.71
2024-03-26T07:17:40.236Z,72.71
2024-03-26T07:18:42.313Z,72.71
2024-03-26T07:19:40.135Z,72.71
2024-03-26T07:20:40.150Z,72.81
2024-03-26T07:21:40.123Z,72.81
2024-03-26T07:22:40.200Z,72.71
2024-03-26T07:23:40.208Z,72.71
2024-03-26T07:24:40.350Z,72.67
2024-03-26T07:25:40.079Z,72.58
2024-03-26T07:26:40.072Z,72.27
2024-03-26T07:27:40.044Z,72.27
2024-03-26T07:28:40.087Z,72.16
2024-03-26T07:29:40.683Z,72.06
2024-03-26T07:30:40.029Z,72.06
2024-03-26T07:31:40.024Z,72.06
2024-03-26T07:32:40.001Z,72.16
2024-03-26T07:33:39.989Z,72.16
2024-03-26T07:34:40.007Z,72.27
2024-03-26T07:35:40.142Z,74.63
2024-03-26T07:36:39.960Z,75.73
2024-03-26T07:37:39.951Z,74.19
2024-03-26T07:38:39.945Z,73.26
2024-03-26T07:39:39.917Z,72.85
2024-03-26T07:40:40.024Z,75.60
2024-03-26T07:41:39.920Z,79.64
2024-03-26T07:42:39.902Z,76.42
2024-03-26T07:43:39.904Z,72.68
2024-03-26T07:44:39.891Z,69.29
2024-03-26T07:45:39.992Z,68.37
2024-03-26T07:46:40.599Z,68.16
2024-03-26T07:47:39.954Z,68.40
2024-03-26T07:48:39.833Z,68.60
2024-03-26T07:49:39.822Z,68.80
2024-03-26T07:50:39.855Z,69.25
2024-03-26T07:51:39.861Z,69.46
2024-03-26T07:52:39.799Z,69.66
2024-03-26T07:53:39.783Z,69.76
2024-03-26T07:54:39.772Z,69.76
2024-03-26T07:55:39.835Z,69.87
2024-03-26T07:56:39.862Z,70.00
2024-03-26T07:57:39.724Z,70.10
2024-03-26T07:58:39.725Z,70.10
2024-03-26T07:59:39.721Z,69.90
2024-03-26T08:00:39.796Z,69.90
2024-03-26T08:01:39.753Z,70.10
2024-03-26T08:02:39.753Z,70.31
2024-03-26T08:03:39.689Z,70.52
2024-03-26T08:04:40.926Z,70.42
2024-03-26T08:05:39.657Z,70.42
2024-03-26T08:06:39.705Z,70.42
2024-03-26T08:07:39.700Z,70.42
2024-03-26T08:08:39.630Z,70.31
2024-03-26T08:09:39.616Z,70.28
2024-03-26T08:10:40.862Z,70.28
2024-03-26T08:11:39.636Z,70.18
2024-03-26T08:12:39.661Z,70.18
2024-03-26T08:13:39.568Z,70.18
2024-03-26T08:14:39.562Z,70.28
2024-03-26T08:15:39.568Z,70.38
2024-03-26T08:16:39.523Z,70.48
2024-03-26T08:17:39.660Z,70.59
2024-03-26T08:18:39.543Z,70.48
2024-03-26T08:19:39.495Z,70.38
2024-03-26T08:20:39.500Z,70.28
2024-03-26T08:21:39.496Z,70.38
2024-03-26T08:22:39.465Z,70.28
2024-03-26T08:23:39.466Z,70.07
2024-03-26T08:24:39.532Z,69.97
2024-03-26T08:25:39.460Z,70.04
2024-03-26T08:26:39.429Z,70.04
2024-03-26T08:27:39.421Z,70.04
2024-03-26T08:28:39.548Z,70.14
2024-03-26T08:29:40.130Z,70.14
2024-03-26T08:30:39.371Z,70.35
2024-03-26T08:31:39.423Z,70.35
2024-03-26T08:32:39.401Z,70.14
2024-03-26T08:33:39.344Z,69.63
2024-03-26T08:34:39.367Z,69.53
2024-03-26T08:35:39.351Z,69.70
2024-03-26T08:36:39.399Z,69.80
2024-03-26T08:37:39.336Z,69.80
2024-03-26T08:38:39.368Z,69.49
2024-03-26T08:39:39.295Z,69.29
2024-03-26T08:40:39.254Z,69.29
2024-03-26T08:41:39.272Z,69.49
2024-03-26T08:42:39.339Z,69.39
2024-03-26T08:43:39.247Z,69.39
2024-03-26T08:44:39.248Z,69.09
2024-03-26T08:45:39.209Z,69.09
2024-03-26T08:46:39.221Z,69.18
2024-03-26T08:47:39.189Z,69.18
2024-03-26T08:48:39.224Z,69.18
2024-03-26T08:49:39.172Z,69.15
2024-03-26T08:50:39.169Z,69.15
2024-03-26T08:51:39.164Z,69.15
2024-03-26T08:52:39.184Z,69.15
2024-03-26T08:53:39.146Z,69.05
2024-03-26T08:54:39.132Z,68.85
2024-03-26T08:55:39.205Z,68.85
2024-03-26T08:56:39.146Z,68.74
2024-03-26T08:57:39.089Z,68.85
2024-03-26T08:58:39.095Z,68.71
2024-03-26T08:59:39.101Z,68.61
2024-03-26T09:00:39.063Z,68.51
2024-03-26T09:01:39.050Z,68.40
2024-03-26T09:02:39.037Z,68.40
2024-03-26T09:03:39.037Z,68.10
2024-03-26T09:04:39.031Z,67.96
2024-03-26T09:05:39.108Z,67.65
2024-03-26T09:06:39.005Z,67.35
2024-03-26T09:07:38.992Z,67.14
2024-03-26T09:08:38.984Z,67.14
2024-03-26T09:09:39.015Z,67.35
2024-03-26T09:10:38.974Z,67.55
2024-03-26T09:11:38.960Z,67.44
2024-03-26T09:12:38.972Z,67.41
2024-03-26T09:13:38.947Z,67.41
2024-03-26T09:14:38.934Z,67.62
2024-03-26T09:15:39.079Z,67.52
2024-03-26T09:16:39.011Z,67.62
2024-03-26T09:17:38.879Z,67.62
2024-03-26T09:18:38.869Z,67.72
2024-03-26T09:19:38.857Z,67.72
2024-03-26T09:20:38.848Z,67.52
2024-03-26T09:21:39.504Z,67.49
2024-03-26T09:22:38.932Z,67.38
2024-03-26T09:23:38.817Z,67.18
2024-03-26T09:24:46.092Z,67.18
2024-03-26T09:25:39.868Z,67.08
2024-03-26T09:26:39.523Z,67.18
2024-03-26T09:27:38.769Z,67.28
2024-03-26T09:28:38.821Z,67.38
2024-03-26T09:29:38.782Z,67.49
2024-03-26T09:30:38.841Z,67.59
2024-03-26T09:31:38.759Z,67.49
2024-03-26T09:32:38.717Z,66.97
2024-03-26T09:33:38.753Z,66.74
2024-03-26T09:34:38.700Z,66.74
2024-03-26T09:35:38.816Z,66.84
2024-03-26T09:36:39.469Z,66.84
2024-03-26T09:37:38.767Z,66.94
2024-03-26T09:38:43.951Z,66.74
2024-03-26T09:39:39.680Z,66.63
2024-03-26T09:40:38.649Z,66.63
2024-03-26T09:41:38.644Z,66.74
2024-03-26T09:42:38.731Z,66.63
2024-03-26T09:43:38.681Z,66.63
2024-03-26T09:44:38.645Z,66.60
2024-03-26T09:45:38.657Z,66.50
2024-03-26T09:46:42.392Z,66.40
2024-03-26T09:47:38.617Z,66.40
2024-03-26T09:48:38.587Z,66.40
2024-03-26T09:49:39.907Z,66.30
2024-03-26T09:50:38.517Z,66.19
2024-03-26T09:51:38.551Z,65.96
2024-03-26T09:52:38.503Z,66.06
2024-03-26T09:53:38.528Z,66.06
2024-03-26T09:54:38.484Z,65.96
2024-03-26T09:55:38.473Z,66.06
2024-03-26T09:56:38.487Z,66.16
2024-03-26T09:57:38.462Z,66.06
2024-03-26T09:58:38.530Z,66.16
2024-03-26T09:59:38.449Z,66.16
2024-03-26T10:00:39.562Z,66.37
2024-03-26T10:01:38.418Z,66.16
2024-03-26T10:02:38.412Z,65.96
2024-03-26T10:03:38.408Z,65.83
2024-03-26T10:04:38.390Z,65.93
2024-03-26T10:05:38.553Z,65.83
2024-03-26T10:06:38.373Z,65.93
2024-03-26T10:07:38.355Z,66.03
2024-03-26T10:08:38.358Z,66.03
2024-03-26T10:09:38.357Z,65.83
2024-03-26T10:10:38.322Z,65.83
2024-03-26T10:11:41.559Z,65.93
2024-03-26T10:12:38.296Z,65.93
2024-03-26T10:13:38.353Z,65.59
2024-03-26T10:14:38.326Z,65.59
2024-03-26T10:15:38.325Z,65.69
2024-03-26T10:16:38.260Z,65.80
2024-03-26T10:17:38.306Z,65.80
2024-03-26T10:18:38.226Z,65.80
2024-03-26T10:19:38.296Z,65.69
2024-03-26T10:20:38.243Z,65.59
2024-03-26T10:21:38.272Z,65.69
2024-03-26T10:22:38.195Z,65.77
2024-03-26T10:23:38.195Z,65.87
2024-03-26T10:24:38.175Z,65.77
2024-03-26T10:25:38.229Z,65.66
2024-03-26T10:26:38.161Z,65.87
2024-03-26T10:27:38.151Z,66.28
2024-03-26T10:28:38.157Z,66.07
2024-03-26T10:29:38.136Z,65.77
2024-03-26T10:30:38.096Z,65.77
2024-03-26T10:31:38.157Z,65.84
2024-03-26T10:32:38.169Z,65.84
2024-03-26T10:33:38.069Z,65.73
2024-03-26T10:34:38.078Z,65.43
2024-03-26T10:35:38.070Z,65.33
2024-03-26T10:36:38.044Z,65.43
2024-03-26T10:37:38.128Z,65.63
2024-03-26T10:38:38.818Z,65.60
2024-03-26T10:39:38.020Z,65.70
2024-03-26T10:40:38.044Z,65.50
2024-03-26T10:41:38.079Z,65.60
2024-03-26T10:42:37.991Z,65.60
2024-03-26T10:43:38.636Z,65.50
2024-03-26T10:44:37.940Z,65.60
2024-03-26T10:45:49.267Z,65.70
2024-03-26T10:46:38.954Z,65.80
2024-03-26T10:47:37.975Z,65.57
2024-03-26T10:48:47.278Z,65.57
2024-03-26T10:49:38.990Z,65.26
2024-03-26T10:50:37.937Z,64.86
2024-03-26T10:51:37.909Z,64.62
2024-03-26T10:52:37.939Z,64.52
2024-03-26T10:53:37.935Z,64.42
2024-03-26T10:54:41.756Z,64.42
2024-03-26T10:55:37.901Z,64.11
2024-03-26T10:56:37.826Z,64.11
2024-03-26T10:57:37.858Z,63.87
2024-03-26T10:58:37.817Z,63.87
2024-03-26T10:59:38.448Z,64.08
2024-03-26T11:00:37.774Z,64.18
2024-03-26T11:01:37.847Z,64.28
2024-03-26T11:02:37.814Z,64.39
2024-03-26T11:03:37.765Z,65.10
2024-03-26T11:04:38.065Z,65.00
2024-03-26T11:05:37.739Z,64.90
2024-03-26T11:06:37.746Z,65.10
2024-03-26T11:07:37.720Z,65.17
2024-03-26T11:08:37.723Z,64.76
2024-03-26T11:09:37.701Z,64.05
2024-03-26T11:10:38.343Z,63.98
2024-03-26T11:11:37.692Z,63.87
2024-03-26T11:12:37.711Z,63.78
2024-03-26T11:13:37.669Z,63.78
2024-03-26T11:14:37.632Z,63.98
2024-03-26T11:15:37.665Z,64.18
2024-03-26T11:16:37.597Z,64.28
2024-03-26T11:17:37.680Z,64.49
2024-03-26T11:18:37.606Z,64.49
2024-03-26T11:19:37.582Z,64.28
2024-03-26T11:20:37.597Z,64.18
2024-03-26T11:21:37.626Z,64.08
2024-03-26T11:22:37.581Z,64.18
2024-03-26T11:23:37.546Z,64.28
2024-03-26T11:24:37.529Z,64.49
2024-03-26T11:25:37.558Z,64.59
2024-03-26T11:26:37.574Z,64.69
2024-03-26T11:27:37.537Z,64.90
2024-03-26T11:28:37.474Z,64.59
2024-03-26T11:29:37.478Z,64.28
2024-03-26T11:30:37.562Z,64.49
2024-03-26T11:31:37.500Z,64.25
2024-03-26T11:32:37.467Z,64.36
2024-03-26T11:33:37.417Z,64.46
2024-03-26T11:34:37.403Z,64.25
2024-03-26T11:35:41.420Z,64.25
2024-03-26T11:36:37.393Z,64.15
2024-03-26T11:37:37.390Z,64.25
2024-03-26T11:38:37.371Z,64.15
2024-03-26T11:39:37.388Z,64.15
2024-03-26T11:40:37.364Z,64.25
2024-03-26T11:41:38.039Z,64.46
2024-03-26T11:42:37.323Z,64.15
2024-03-26T11:43:37.336Z,64.15
2024-03-26T11:44:37.334Z,64.36
2024-03-26T11:45:37.293Z,64.53
2024-03-26T11:46:37.276Z,64.73
2024-03-26T11:47:37.627Z,64.73
2024-03-26T11:48:37.316Z,64.53
2024-03-26T11:49:37.277Z,64.43
2024-03-26T11:50:38.007Z,64.02
2024-03-26T11:51:39.065Z,63.82
2024-03-26T11:52:37.301Z,63.89
2024-03-26T11:53:37.246Z,63.68
2024-03-26T11:54:37.203Z,63.79
2024-03-26T11:55:37.182Z,64.29
2024-03-26T11:56:37.196Z,64.29
2024-03-26T11:57:37.716Z,64.40
2024-03-26T11:58:37.195Z,64.26
2024-03-26T11:59:37.179Z,63.96
2024-03-26T12:00:37.167Z,63.65
2024-03-26T12:01:37.124Z,63.45
2024-03-26T12:02:37.124Z,63.62
2024-03-26T12:03:37.181Z,63.62
2024-03-26T12:04:37.099Z,63.32
2024-03-26T12:05:37.067Z,63.32
2024-03-26T12:06:37.090Z,63.42
2024-03-26T12:07:37.093Z,63.70
2024-03-26T12:08:37.071Z,63.59
2024-03-26T12:09:37.025Z,63.70
2024-03-26T12:10:37.023Z,64.00
2024-03-26T12:11:37.010Z,64.31
2024-03-26T12:12:37.140Z,64.20
2024-03-26T12:13:37.095Z,64.11
2024-03-26T12:14:36.962Z,64.11
2024-03-26T12:15:36.986Z,64.20
2024-03-26T12:16:36.974Z,64.11
2024-03-26T12:17:36.996Z,64.31
2024-03-26T12:18:36.990Z,64.31
2024-03-26T12:19:36.957Z,64.41
2024-03-26T12:20:36.930Z,64.31
2024-03-26T12:21:36.906Z,64.41
2024-03-26T12:22:36.891Z,64.41
2024-03-26T12:23:36.890Z,64.41
2024-03-26T12:24:36.946Z,64.31
2024-03-26T12:25:36.872Z,64.72
2024-03-26T12:26:36.855Z,64.72
2024-03-26T12:27:36.846Z,64.61
2024-03-26T12:28:36.824Z,64.61
2024-03-26T12:29:36.853Z,64.61
2024-03-26T12:30:36.806Z,64.72
2024-03-26T12:31:36.787Z,64.81
2024-03-26T12:32:36.787Z,64.51
2024-03-26T12:33:36.851Z,64.41
2024-03-26T12:34:36.771Z,64.38
2024-03-26T12:35:36.780Z,64.38
2024-03-26T12:36:36.757Z,64.07
2024-03-26T12:37:36.719Z,63.87
2024-03-26T12:38:36.714Z,64.20
2024-03-26T12:39:36.721Z,64.31
2024-03-26T12:40:36.794Z,63.90
2024-03-26T12:41:36.696Z,64.00
2024-03-26T12:42:36.685Z,64.31
2024-03-26T12:43:36.668Z,64.38
2024-03-26T12:44:36.962Z,64.48
2024-03-26T12:45:36.642Z,64.48
2024-03-26T12:46:36.635Z,64.48
2024-03-26T12:47:36.648Z,64.07
2024-03-26T12:48:36.615Z,64.69
2024-03-26T12:49:36.602Z,64.89
2024-03-26T12:50:36.586Z,64.79
2024-03-26T12:51:36.575Z,64.89
2024-03-26T12:52:36.619Z,64.99